Time;durP1;ratioP1;P1;durP2;ratioP2;P2;SDS_P1;SDS_P2;PMS_P1;PMS_P2;Temp;Humidity;BMP_temperature;BMP_pressure;BME280_temperature;BME280_humidity;BME280_pressure;Samples;Min_cycle;Max_cycle;Signal;HPM_P1;HPM_P2
2023/03/09 00:01:23;;;;;;;1.83;1.30;;;17.30;1.00;;;;;;5071896;28;20045;-40
2023/03/09 00:03:50;;;;;;;2.25;1.85;;;17.30;1.00;;;;;;5070935;28;20048;-40
2023/03/09 00:06:17;;;;;;;2.55;1.40;;;17.30;1.00;;;;;;5072820;28;20419;-39
2023/03/09 00:08:46;;;;;;;2.35;1.65;;;17.20;1.00;;;;;;5072810;28;20090;-39
2023/03/09 00:11:14;;;;;;;2.78;1.50;;;17.20;1.00;;;;;;5072504;28;20059;-39
2023/03/09 00:13:41;;;;;;;2.47;1.48;;;17.10;1.00;;;;;;5072100;28;20094;-39
2023/03/09 00:16:13;;;;;;;2.35;1.35;;;17.10;1.00;;;;;;5072744;28;20068;-39
2023/03/09 00:18:40;;;;;;;4.07;1.67;;;17.10;1.00;;;;;;5072726;28;20068;-39
2023/03/09 00:21:14;;;;;;;1.88;1.40;;;17.10;1.00;;;;;;5072286;28;20077;-39
2023/03/09 00:23:42;;;;;;;4.25;1.75;;;17.00;1.00;;;;;;5071668;28;20496;-39
2023/03/09 00:26:09;;;;;;;2.60;1.80;;;17.00;1.00;;;;;;5072485;28;20090;-39
2023/03/09 00:28:37;;;;;;;2.95;1.85;;;17.00;1.00;;;;;;5072342;28;20407;-39
2023/03/09 00:31:06;;;;;;;2.88;2.10;;;16.90;1.00;;;;;;5072206;28;20581;-39
2023/03/09 00:33:35;;;;;;;2.55;1.90;;;16.90;1.00;;;;;;5071747;28;20041;-39
2023/03/09 00:36:02;;;;;;;3.88;1.70;;;16.90;1.00;;;;;;5072269;28;20648;-39
2023/03/09 00:38:28;;;;;;;3.55;1.95;;;16.90;1.00;;;;;;5072161;28;20052;-39
2023/03/09 00:40:55;;;;;;;2.72;1.88;;;16.90;1.00;;;;;;5070936;28;20044;-39
2023/03/09 00:43:22;;;;;;;2.75;1.63;;;16.80;1.00;;;;;;5070175;28;20063;-39
2023/03/09 00:45:49;;;;;;;4.00;2.22;;;16.80;1.00;;;;;;5070838;28;20090;-39
2023/03/09 00:48:16;;;;;;;2.88;1.85;;;16.80;1.00;;;;;;5070818;28;20071;-39
2023/03/09 00:50:42;;;;;;;3.20;1.90;;;16.70;1.00;;;;;;5070686;28;20535;-39
2023/03/09 00:53:09;;;;;;;3.75;2.00;;;16.70;1.00;;;;;;5071298;28;20048;-39
2023/03/09 00:55:36;;;;;;;2.83;2.05;;;16.70;1.00;;;;;;5070714;28;20048;-39
2023/03/09 00:58:03;;;;;;;2.67;1.70;;;16.70;1.00;;;;;;5070731;28;20049;-39
2023/03/09 01:00:32;;;;;;;4.03;2.00;;;16.70;1.00;;;;;;5070857;28;20083;-39
2023/03/09 01:03:01;;;;;;;2.25;1.45;;;16.60;1.00;;;;;;5070015;28;20393;-39
2023/03/09 01:05:27;;;;;;;2.83;2.00;;;16.60;1.00;;;;;;5071775;28;20048;-39
2023/03/09 01:07:54;;;;;;;2.92;2.03;;;16.60;1.00;;;;;;5071928;28;20110;-39
2023/03/09 01:10:22;;;;;;;2.88;1.90;;;16.60;1.00;;;;;;5070556;28;20079;-39
2023/03/09 01:12:50;;;;;;;3.55;2.20;;;16.50;1.00;;;;;;5069810;28;20051;-39
2023/03/09 01:15:17;;;;;;;3.22;2.00;;;16.50;1.00;;;;;;5071798;28;20457;-39
2023/03/09 01:17:44;;;;;;;3.15;1.60;;;16.50;1.00;;;;;;5071688;28;20048;-39
2023/03/09 01:20:11;;;;;;;3.33;2.17;;;16.50;1.00;;;;;;5071685;28;20041;-40
2023/03/09 01:22:38;;;;;;;4.28;2.22;;;16.50;1.00;;;;;;5069697;28;20106;-39
2023/03/09 01:25:06;;;;;;;3.20;1.90;;;16.40;1.00;;;;;;5070427;28;20052;-39
2023/03/09 01:27:33;;;;;;;3.53;1.92;;;16.40;1.00;;;;;;5070628;28;20049;-39
2023/03/09 01:29:59;;;;;;;3.08;1.58;;;16.40;1.00;;;;;;5070276;28;20057;-39
2023/03/09 01:32:26;;;;;;;2.95;2.00;;;16.40;1.00;;;;;;5069756;28;20052;-40
2023/03/09 01:34:53;;;;;;;2.65;1.60;;;16.30;1.00;;;;;;5070171;28;20496;-39
2023/03/09 01:37:20;;;;;;;3.03;1.88;;;16.30;1.00;;;;;;5070419;28;20056;-39
2023/03/09 01:39:47;;;;;;;4.10;1.80;;;16.30;1.00;;;;;;5070164;28;20044;-39
2023/03/09 01:42:13;;;;;;;4.75;2.47;;;16.30;1.00;;;;;;5070030;28;20044;-39
2023/03/09 01:44:40;;;;;;;4.53;2.80;;;16.30;1.00;;;;;;5071112;28;20047;-39
2023/03/09 01:47:07;;;;;;;3.53;2.28;;;16.20;1.00;;;;;;5071521;28;20043;-39
2023/03/09 01:49:43;;;;;;;2.05;1.45;;;16.20;1.00;;;;;;5070103;28;20040;-39
2023/03/09 01:52:25;;;;;;;3.10;1.70;;;16.20;1.00;;;;;;5071220;28;20056;-39
2023/03/09 01:55:05;;;;;;;2.85;1.40;;;16.10;1.00;;;;;;5070989;28;20102;-39
2023/03/09 01:57:36;;;;;;;3.08;2.20;;;16.10;1.00;;;;;;5070207;28;20061;-39
2023/03/09 02:00:11;;;;;;;2.15;1.58;;;16.10;1.00;;;;;;5069965;28;20048;-39
2023/03/09 02:02:44;;;;;;;2.10;1.70;;;16.10;1.00;;;;;;5070976;28;20086;-39
2023/03/09 02:05:19;;;;;;;2.83;1.77;;;16.10;1.00;;;;;;5070135;28;20431;-39
2023/03/09 02:07:49;;;;;;;3.03;2.28;;;16.10;1.00;;;;;;5069988;28;20583;-39
2023/03/09 02:10:35;;;;;;;4.03;1.60;;;16.00;1.00;;;;;;5070099;28;20053;-39
2023/03/09 02:13:07;;;;;;;2.22;1.35;;;16.00;1.00;;;;;;5069426;28;20044;-39
2023/03/09 02:15:35;;;;;;;2.37;1.87;;;16.00;1.00;;;;;;5070169;28;20644;-39
2023/03/09 02:18:02;;;;;;;2.90;1.75;;;16.00;1.00;;;;;;5069785;28;20410;-39
2023/03/09 02:20:51;;;;;;;2.55;1.70;;;15.90;1.00;;;;;;5069924;28;20415;-40
2023/03/09 02:23:33;;;;;;;2.85;1.90;;;15.90;1.00;;;;;;5069713;28;20043;-40
2023/03/09 02:26:25;;;;;;;4.68;2.00;;;15.90;1.00;;;;;;5073372;28;20055;-40
2023/03/09 02:28:52;;;;;;;2.20;1.30;;;15.90;1.00;;;;;;5074664;28;20048;-40
2023/03/09 02:31:21;;;;;;;2.30;1.40;;;15.90;1.00;;;;;;5073326;28;20052;-39
2023/03/09 02:33:48;;;;;;;4.00;1.90;;;15.90;1.00;;;;;;5074036;28;20071;-39
2023/03/09 02:36:15;;;;;;;2.55;1.60;;;15.80;1.00;;;;;;5073140;28;20551;-39
2023/03/09 02:38:45;;;;;;;2.40;1.70;;;15.80;1.00;;;;;;5073310;28;20423;-39
2023/03/09 02:41:13;;;;;;;3.25;1.65;;;15.80;1.00;;;;;;5072927;28;20040;-39
2023/03/09 02:43:47;;;;;;;3.88;1.63;;;15.80;1.00;;;;;;5072416;28;20045;-39
2023/03/09 02:46:14;;;;;;;2.45;1.70;;;15.80;1.00;;;;;;5073239;28;20127;-40
2023/03/09 02:48:41;;;;;;;3.05;1.60;;;15.80;1.00;;;;;;5074390;28;20098;-40
2023/03/09 02:51:08;;;;;;;2.05;1.50;;;15.70;1.00;;;;;;5074357;28;20428;-39
2023/03/09 02:53:36;;;;;;;6.25;1.77;;;15.70;1.00;;;;;;5072253;28;20144;-39
2023/03/09 02:56:03;;;;;;;1.90;1.35;;;15.70;1.00;;;;;;5072959;28;20573;-39
2023/03/09 02:58:32;;;;;;;2.58;1.90;;;15.70;1.00;;;;;;5072881;28;20056;-39
2023/03/09 03:00:59;;;;;;;2.85;1.55;;;15.70;1.00;;;;;;5072719;28;20059;-39
2023/03/09 03:03:27;;;;;;;2.95;2.03;;;15.60;1.00;;;;;;5072067;28;20436;-39
2023/03/09 03:05:54;;;;;;;2.90;1.77;;;15.60;1.00;;;;;;5072732;28;20047;-39
2023/03/09 03:08:21;;;;;;;2.97;1.70;;;15.60;1.00;;;;;;5072686;28;20044;-40
2023/03/09 03:11:02;;;;;;;2.70;1.90;;;15.60;1.00;;;;;;5073826;28;20086;-39
2023/03/09 03:13:29;;;;;;;3.15;1.98;;;15.60;1.00;;;;;;5071839;28;20412;-39
2023/03/09 03:16:00;;;;;;;3.35;1.77;;;15.60;1.00;;;;;;5072462;28;20517;-39
2023/03/09 03:18:28;;;;;;;2.88;1.83;;;15.50;1.00;;;;;;5073629;28;20102;-39
2023/03/09 03:20:55;;;;;;;3.33;1.65;;;15.50;1.00;;;;;;5072321;28;20092;-39
2023/03/09 03:23:22;;;;;;;3.22;1.88;;;15.50;1.00;;;;;;5071643;28;20045;-39
2023/03/09 03:25:51;;;;;;;2.60;1.75;;;15.50;1.00;;;;;;5072481;28;20412;-39
2023/03/09 03:28:18;;;;;;;2.22;1.48;;;15.50;1.00;;;;;;5072275;28;20466;-39
2023/03/09 03:30:52;;;;;;;2.28;1.75;;;15.50;1.00;;;;;;5072206;28;20076;-40
2023/03/09 03:33:24;;;;;;;2.47;1.73;;;15.50;1.00;;;;;;5071622;28;20087;-39
2023/03/09 03:35:53;;;;;;;3.15;2.10;;;15.50;1.00;;;;;;5071191;28;20450;-39
2023/03/09 03:38:20;;;;;;;4.15;2.47;;;15.40;1.00;;;;;;5072045;28;20533;-39
2023/03/09 03:40:47;;;;;;;5.28;2.22;;;15.40;1.00;;;;;;5071876;28;20041;-39
2023/03/09 03:43:15;;;;;;;3.45;1.80;;;15.40;1.00;;;;;;5071100;28;20553;-39
2023/03/09 03:45:45;;;;;;;4.00;2.65;;;15.40;1.00;;;;;;5071865;28;20052;-39
2023/03/09 03:48:12;;;;;;;2.85;1.60;;;15.40;1.00;;;;;;5071876;28;20135;-39
2023/03/09 03:50:40;;;;;;;3.05;1.92;;;15.30;1.00;;;;;;5071812;28;20044;-39
2023/03/09 03:53:07;;;;;;;2.88;2.17;;;15.30;1.00;;;;;;5072375;28;20044;-39
2023/03/09 03:55:34;;;;;;;3.72;2.20;;;15.30;1.00;;;;;;5071929;28;20053;-39
2023/03/09 03:58:03;;;;;;;2.30;1.42;;;15.30;1.00;;;;;;5072881;28;20040;-39
2023/03/09 04:00:31;;;;;;;2.63;1.80;;;15.30;1.00;;;;;;5071505;28;20538;-39
2023/03/09 04:03:02;;;;;;;2.95;1.83;;;15.30;1.00;;;;;;5070879;28;20090;-40
2023/03/09 04:05:37;;;;;;;4.05;2.03;;;15.20;1.00;;;;;;5071607;28;20524;-39
2023/03/09 04:08:04;;;;;;;2.60;1.70;;;15.20;1.00;;;;;;5073039;28;20044;-39
2023/03/09 04:10:31;;;;;;;3.08;1.95;;;15.20;1.00;;;;;;5071564;28;20554;-39
2023/03/09 04:12:59;;;;;;;2.95;1.95;;;15.20;1.00;;;;;;5070414;28;20412;-39
2023/03/09 04:15:27;;;;;;;2.78;1.60;;;15.20;1.00;;;;;;5071500;28;20040;-39
2023/03/09 04:17:54;;;;;;;2.20;2.00;;;15.20;1.00;;;;;;5071129;28;20384;-39
2023/03/09 04:20:20;;;;;;;3.13;2.05;;;15.20;1.00;;;;;;5054383;28;20036;-39
2023/03/09 04:22:49;;;;;;;2.15;1.70;;;15.20;1.00;;;;;;5053761;28;20079;-39
2023/03/09 04:25:17;;;;;;;2.55;1.70;;;15.20;1.00;;;;;;5054370;28;20043;-39
2023/03/09 04:27:44;;;;;;;3.30;2.00;;;15.10;1.00;;;;;;5054352;28;20044;-39
2023/03/09 04:30:20;;;;;;;1.77;1.48;;;15.10;1.00;;;;;;5054333;28;20055;-39
2023/03/09 04:32:49;;;;;;;3.33;2.30;;;15.10;1.00;;;;;;5053835;28;20044;-39
2023/03/09 04:35:17;;;;;;;3.80;1.60;;;15.10;1.00;;;;;;5054525;28;20040;-39
2023/03/09 04:37:46;;;;;;;2.78;1.52;;;15.10;1.00;;;;;;5054210;28;20083;-39
2023/03/09 04:40:14;;;;;;;4.65;1.85;;;15.10;1.00;;;;;;5054224;28;20052;-39
2023/03/09 04:42:41;;;;;;;2.83;1.70;;;15.00;1.00;;;;;;5053466;28;20123;-39
2023/03/09 04:45:09;;;;;;;3.30;1.80;;;15.00;1.00;;;;;;5054408;28;20044;-39
2023/03/09 04:47:39;;;;;;;3.08;1.77;;;15.00;1.00;;;;;;5053646;28;20067;-39
2023/03/09 04:50:06;;;;;;;3.10;1.80;;;15.00;1.00;;;;;;5053991;28;20086;-39
2023/03/09 04:52:37;;;;;;;2.75;1.80;;;15.00;1.00;;;;;;5053636;28;20708;-39
2023/03/09 04:55:05;;;;;;;2.15;1.75;;;15.00;1.00;;;;;;5054263;28;20058;-40
2023/03/09 04:57:33;;;;;;;2.20;1.50;;;15.00;1.00;;;;;;5054071;28;20056;-39
2023/03/09 05:00:03;;;;;;;1.77;1.48;;;15.00;1.00;;;;;;5053637;28;20087;-39
2023/03/09 05:02:33;;;;;;;3.72;1.90;;;14.90;1.00;;;;;;5071539;28;20041;-39
2023/03/09 05:05:00;;;;;;;2.83;1.80;;;14.90;1.00;;;;;;5053451;28;20045;-40
2023/03/09 05:07:27;;;;;;;1.48;1.10;;;14.90;1.00;;;;;;5071934;28;20048;-39
2023/03/09 05:09:54;;;;;;;3.88;1.40;;;14.90;1.00;;;;;;5054196;28;20067;-39
2023/03/09 05:12:21;;;;;;;2.15;1.40;;;14.90;1.00;;;;;;5055922;28;20041;-39
2023/03/09 05:14:48;;;;;;;2.40;1.60;;;14.90;1.00;;;;;;5055036;28;20139;-39
2023/03/09 05:17:17;;;;;;;4.30;2.15;;;14.90;1.00;;;;;;5059736;28;20036;-39
2023/03/09 05:19:44;;;;;;;2.15;1.38;;;14.90;1.00;;;;;;5070262;28;20451;-39
2023/03/09 05:22:11;;;;;;;2.17;1.30;;;14.90;1.00;;;;;;5070073;28;20052;-39
2023/03/09 05:24:38;;;;;;;3.33;1.60;;;14.80;1.00;;;;;;5069674;28;20510;-39
2023/03/09 05:27:05;;;;;;;8.75;1.92;;;14.80;1.00;;;;;;5063173;28;20044;-39
2023/03/09 05:29:33;;;;;;;11.95;2.78;;;14.80;1.00;;;;;;5070023;28;20444;-39
2023/03/09 05:32:00;;;;;;;6.68;2.17;;;14.80;1.00;;;;;;5069976;28;20044;-39
2023/03/09 05:34:28;;;;;;;3.00;2.17;;;14.80;1.00;;;;;;5069638;28;20098;-39
2023/03/09 05:36:57;;;;;;;7.75;2.20;;;14.70;1.00;;;;;;5070338;28;20094;-39
2023/03/09 05:39:26;;;;;;;4.38;2.30;;;14.70;1.00;;;;;;5070103;28;20276;-39
2023/03/09 05:41:54;;;;;;;10.00;2.15;;;14.70;1.00;;;;;;5070223;28;20063;-39
2023/03/09 05:44:28;;;;;;;18.88;2.75;;;14.70;1.00;;;;;;5069622;28;20041;-39
2023/03/09 05:46:55;;;;;;;5.97;2.05;;;14.70;1.00;;;;;;5070203;28;20048;-39
2023/03/09 05:49:21;;;;;;;4.15;1.90;;;14.70;1.00;;;;;;5070121;28;20051;-39
2023/03/09 05:51:50;;;;;;;3.58;2.10;;;14.60;1.00;;;;;;5070338;28;20045;-39
2023/03/09 05:54:17;;;;;;;3.72;1.98;;;14.60;1.00;;;;;;5069392;28;20106;-39
2023/03/09 05:56:44;;;;;;;2.72;1.60;;;14.60;1.00;;;;;;5069179;28;20045;-39
2023/03/09 05:59:12;;;;;;;4.80;1.83;;;14.60;1.00;;;;;;5062140;28;20449;-39
2023/03/09 06:01:39;;;;;;;5.20;1.25;;;14.60;1.00;;;;;;5075131;28;20544;-39
2023/03/09 06:04:20;;;;;;;1.90;1.50;;;14.70;1.00;;;;;;5073067;28;20051;-39
2023/03/09 06:06:51;;;;;;;2.78;1.20;;;14.70;1.00;;;;;;5072231;28;20043;-39
2023/03/09 06:09:21;;;;;;;7.20;1.40;;;14.80;1.00;;;;;;5060086;28;21039;-39
2023/03/09 06:11:49;;;;;;;3.33;2.50;;;14.90;1.00;;;;;;5059520;28;20052;-39
2023/03/09 06:14:18;;;;;;;2.30;1.30;;;14.90;1.00;;;;;;5059158;28;20416;-39
2023/03/09 06:16:45;;;;;;;4.40;1.38;;;15.00;1.00;;;;;;5055358;28;20048;-39
2023/03/09 06:19:12;;;;;;;2.55;1.20;;;15.10;1.00;;;;;;5064977;28;20117;-39
2023/03/09 06:21:40;;;;;;;2.85;1.55;;;15.20;1.00;;;;;;5073395;28;20091;-39
2023/03/09 06:24:08;;;;;;;2.97;1.17;;;15.30;1.00;;;;;;5072458;28;20067;-39
2023/03/09 06:26:35;;;;;;;2.42;1.40;;;15.30;1.00;;;;;;5073440;28;20040;-39
2023/03/09 06:29:07;;;;;;;2.08;1.17;;;15.40;1.00;;;;;;5073229;28;20083;-39
2023/03/09 06:31:38;;;;;;;2.38;1.60;;;15.50;1.00;;;;;;5070987;22;20045;-37
2023/03/09 06:34:04;;;;;;;2.95;1.50;;;15.60;1.00;;;;;;5055688;28;20571;-38
2023/03/09 06:36:32;;;;;;;2.45;1.30;;;15.60;1.00;;;;;;5056685;28;20044;-37
2023/03/09 06:38:59;;;;;;;4.03;1.23;;;15.60;1.00;;;;;;5056281;28;20037;-38
2023/03/09 06:41:31;;;;;;;1.45;1.05;;;15.70;1.00;;;;;;5056401;28;20037;-38
2023/03/09 06:44:08;;;;;;;2.58;1.25;;;15.70;1.00;;;;;;5055737;28;20048;-37
2023/03/09 06:46:36;;;;;;;1.90;1.10;;;15.70;1.00;;;;;;5056289;28;20045;-38
2023/03/09 06:49:04;;;;;;;3.47;1.10;;;15.70;1.00;;;;;;5056224;28;20045;-38
2023/03/09 06:51:31;;;;;;;3.80;1.20;;;15.70;1.00;;;;;;5056213;28;20527;-38
2023/03/09 06:53:57;;;;;;;1.88;1.15;;;15.70;1.00;;;;;;5038886;28;20045;-38
2023/03/09 06:56:29;;;;;;;2.42;1.42;;;15.70;1.00;;;;;;5056482;28;20098;-37
2023/03/09 06:58:56;;;;;;;3.58;1.45;;;15.70;1.00;;;;;;5055813;28;20485;-38
2023/03/09 07:01:24;;;;;;;1.92;1.17;;;15.70;1.00;;;;;;5056129;28;20435;-38
2023/03/09 07:03:55;;;;;;;2.40;1.27;;;15.70;1.00;;;;;;5055100;28;20036;-38
2023/03/09 07:06:22;;;;;;;2.25;1.40;;;15.70;1.00;;;;;;5073986;28;20040;-37
2023/03/09 07:08:49;;;;;;;1.95;1.23;;;15.70;1.00;;;;;;5056019;28;20049;-39
2023/03/09 07:11:15;;;;;;;2.22;1.30;;;15.70;1.00;;;;;;5073581;28;20454;-38
2023/03/09 07:13:42;;;;;;;2.45;1.55;;;15.70;1.00;;;;;;5073033;28;20090;-37
2023/03/09 07:16:09;;;;;;;4.32;1.27;;;15.70;1.00;;;;;;5073690;28;20062;-38
2023/03/09 07:18:36;;;;;;;1.73;1.40;;;15.70;1.00;;;;;;5073811;28;20040;-38
2023/03/09 07:21:03;;;;;;;2.65;1.88;;;15.70;1.00;;;;;;5073616;28;20033;-38
2023/03/09 07:23:31;;;;;;;3.92;1.63;;;15.60;1.00;;;;;;5072589;28;20040;-38
2023/03/09 07:26:00;;;;;;;2.63;1.35;;;15.60;1.00;;;;;;5055627;28;20419;-37
2023/03/09 07:28:27;;;;;;;2.80;1.67;;;15.60;1.00;;;;;;5073632;28;20446;-37
2023/03/09 07:30:54;;;;;;;2.88;1.45;;;15.60;1.00;;;;;;5073264;28;20491;-37
2023/03/09 07:33:21;;;;;;;2.67;1.88;;;15.60;1.00;;;;;;5054944;28;20044;-37
2023/03/09 07:35:48;;;;;;;3.83;1.67;;;15.60;1.00;;;;;;5073534;28;20051;-37
2023/03/09 07:38:15;;;;;;;2.85;1.75;;;15.50;1.00;;;;;;5073370;28;20055;-37
2023/03/09 07:40:42;;;;;;;4.03;1.33;;;15.50;1.00;;;;;;5073054;28;20051;-37
2023/03/09 07:43:11;;;;;;;3.15;1.88;;;15.50;1.00;;;;;;5072400;28;20123;-36
2023/03/09 07:45:50;;;;;;;2.75;1.52;;;15.50;1.00;;;;;;5055358;28;20044;-37
2023/03/09 07:48:17;;;;;;;2.65;1.30;;;15.50;1.00;;;;;;5073141;28;20064;-37
2023/03/09 07:50:45;;;;;;;2.00;1.17;;;15.50;1.00;;;;;;5073348;28;20520;-37
2023/03/09 07:53:11;;;;;;;3.17;1.60;;;15.40;1.00;;;;;;5072181;28;20423;-37
2023/03/09 07:55:38;;;;;;;2.03;1.17;;;15.40;1.00;;;;;;5073117;28;20078;-37
2023/03/09 07:58:05;;;;;;;2.13;1.42;;;15.40;1.00;;;;;;5072850;28;20549;-37
2023/03/09 08:00:32;;;;;;;2.25;1.40;;;15.40;1.00;;;;;;5072736;28;20036;-37
2023/03/09 08:03:00;;;;;;;1.65;1.30;;;15.40;1.00;;;;;;5071850;28;20476;-37
2023/03/09 08:05:27;;;;;;;2.10;1.15;;;15.30;1.00;;;;;;5072573;28;20039;-38
2023/03/09 08:07:54;;;;;;;2.60;1.70;;;15.30;1.00;;;;;;5072615;28;20044;-37
2023/03/09 08:10:21;;;;;;;1.88;1.23;;;15.30;1.00;;;;;;5072781;28;20134;-37
2023/03/09 08:12:49;;;;;;;1.98;1.15;;;15.30;1.00;;;;;;5071373;28;20086;-38
2023/03/09 08:15:18;;;;;;;2.47;1.65;;;15.30;1.00;;;;;;5072558;28;20075;-38
2023/03/09 08:17:45;;;;;;;3.65;1.50;;;15.20;1.00;;;;;;5072577;28;20128;-37
2023/03/09 08:20:12;;;;;;;2.75;1.55;;;15.20;1.00;;;;;;5072198;28;20083;-37
2023/03/09 08:22:39;;;;;;;2.30;1.15;;;15.20;1.00;;;;;;5070941;28;20041;-37
2023/03/09 08:25:08;;;;;;;2.72;2.03;;;15.20;1.00;;;;;;5054341;28;20127;-37
2023/03/09 08:27:43;;;;;;;3.60;1.52;;;15.20;1.00;;;;;;5072472;28;20040;-37
2023/03/09 08:30:11;;;;;;;3.05;1.58;;;15.20;1.00;;;;;;5072434;28;20036;-37
2023/03/09 08:32:39;;;;;;;2.88;2.03;;;15.20;1.00;;;;;;5071368;28;20051;-38
2023/03/09 08:35:06;;;;;;;2.10;1.20;;;15.20;1.00;;;;;;5072229;28;20040;-38
2023/03/09 08:37:33;;;;;;;2.13;1.45;;;15.20;1.00;;;;;;5072340;28;20041;-38
2023/03/09 08:40:00;;;;;;;2.05;1.27;;;15.20;1.00;;;;;;5072238;28;20060;-38
2023/03/09 08:42:27;;;;;;;1.60;1.00;;;15.20;1.00;;;;;;5071685;28;20040;-38
2023/03/09 08:44:54;;;;;;;2.35;1.23;;;15.20;1.00;;;;;;5071750;28;20484;-37
2023/03/09 08:47:20;;;;;;;2.85;1.60;;;15.10;1.00;;;;;;5072008;28;20542;-38
2023/03/09 08:49:47;;;;;;;2.35;1.70;;;15.10;1.00;;;;;;5071731;28;20059;-38
2023/03/09 08:52:15;;;;;;;4.38;1.30;;;15.10;1.00;;;;;;5071656;28;20048;-38
2023/03/09 08:54:42;;;;;;;2.30;1.75;;;15.10;1.00;;;;;;5071596;28;20047;-37
2023/03/09 08:57:09;;;;;;;2.50;1.77;;;15.10;1.00;;;;;;5071944;28;20105;-38
2023/03/09 08:59:36;;;;;;;4.68;1.70;;;15.10;1.00;;;;;;5071681;28;20061;-37
2023/03/09 09:02:03;;;;;;;1.52;1.10;;;15.10;1.00;;;;;;5071739;28;20514;-38
2023/03/09 09:04:31;;;;;;;2.17;1.27;;;15.10;1.00;;;;;;5053073;28;20043;-38
2023/03/09 09:06:58;;;;;;;2.08;1.23;;;15.00;1.00;;;;;;5071744;28;20404;-38
2023/03/09 09:09:25;;;;;;;2.58;1.38;;;15.00;1.00;;;;;;5072100;28;20086;-39
2023/03/09 09:11:52;;;;;;;3.25;1.85;;;15.00;1.00;;;;;;5071852;28;20041;-38
2023/03/09 09:14:18;;;;;;;2.33;1.23;;;15.00;1.00;;;;;;5070814;28;20037;-39
2023/03/09 09:16:45;;;;;;;2.85;1.48;;;15.00;1.00;;;;;;5071695;28;20399;-39
2023/03/09 09:19:12;;;;;;;2.17;1.25;;;15.00;1.00;;;;;;5071694;28;20041;-39
2023/03/09 09:21:39;;;;;;;1.83;1.30;;;15.00;1.00;;;;;;5071606;28;20446;-38
2023/03/09 09:24:06;;;;;;;2.63;1.65;;;15.00;1.00;;;;;;5070815;28;20507;-38
2023/03/09 09:26:33;;;;;;;3.60;1.50;;;15.00;1.00;;;;;;5071835;28;20067;-39
2023/03/09 09:29:01;;;;;;;3.00;1.60;;;14.90;1.00;;;;;;5071540;28;20032;-39
2023/03/09 09:31:28;;;;;;;1.30;1.00;;;14.90;1.00;;;;;;5071594;28;20033;-39
2023/03/09 09:33:59;;;;;;;2.17;1.20;;;14.90;1.00;;;;;;5056108;28;20041;-39
2023/03/09 09:36:26;;;;;;;1.88;1.20;;;14.90;1.00;;;;;;5075540;28;20068;-39
2023/03/09 09:38:54;;;;;;;2.35;1.48;;;14.90;1.00;;;;;;5075611;28;20066;-39
2023/03/09 09:41:23;;;;;;;2.28;1.48;;;14.90;1.00;;;;;;5075456;28;20045;-38
2023/03/09 09:43:55;;;;;;;2.17;1.20;;;14.90;1.00;;;;;;5074603;28;20451;-39
2023/03/09 09:46:24;;;;;;;2.85;1.60;;;14.90;1.00;;;;;;5075472;28;20036;-38
2023/03/09 09:48:51;;;;;;;2.25;1.55;;;14.90;1.00;;;;;;5075571;28;20044;-39
2023/03/09 09:51:27;;;;;;;3.05;1.35;;;14.90;1.00;;;;;;5057503;28;20040;-37
2023/03/09 09:54:11;;;;;;;1.98;1.25;;;14.90;1.00;;;;;;5075068;28;20044;-37
2023/03/09 09:56:55;;;;;;;2.55;1.67;;;14.90;1.00;;;;;;5075418;28;20300;-37
2023/03/09 09:59:27;;;;;;;2.10;1.42;;;14.80;1.00;;;;;;5074943;28;20044;-37
2023/03/09 10:02:07;;;;;;;2.08;1.27;;;14.80;1.00;;;;;;5074995;28;20058;-37
2023/03/09 10:04:46;;;;;;;2.85;1.75;;;14.80;1.00;;;;;;5074379;28;20043;-37
2023/03/09 10:07:19;;;;;;;1.60;1.02;;;14.80;1.00;;;;;;5075202;28;20116;-37
2023/03/09 10:09:52;;;;;;;2.47;1.30;;;14.80;1.00;;;;;;5074890;28;20448;-38
2023/03/09 10:12:19;;;;;;;;;;;14.80;1.00;;;;;;5057525;28;20140;-37
2023/03/09 10:14:55;;;;;;;2.03;1.20;;;14.80;1.00;;;;;;5074275;28;19926;-38
2023/03/09 10:17:31;;;;;;;3.15;1.83;;;14.80;1.00;;;;;;5074752;28;20151;-38
2023/03/09 10:20:09;;;;;;;2.75;1.10;;;14.80;1.00;;;;;;5074594;28;20048;-38
2023/03/09 10:22:39;;;;;;;2.20;1.42;;;14.80;1.00;;;;;;5074451;28;20534;-38
2023/03/09 10:25:14;;;;;;;2.15;1.33;;;14.80;1.00;;;;;;5074628;28;20064;-38
2023/03/09 10:27:49;;;;;;;2.08;1.25;;;14.80;1.00;;;;;;5074762;28;20395;-38
2023/03/09 10:30:57;;;;;;;2.10;1.10;;;14.70;1.00;;;;;;5074449;28;20047;-39
2023/03/09 10:33:44;;;;;;;3.33;1.40;;;14.70;1.00;;;;;;5034720;28;20080;-38
2023/03/09 10:36:23;;;;;;;3.63;1.60;;;14.70;1.00;;;;;;5074580;28;20033;-38
2023/03/09 10:38:52;;;;;;;3.28;1.67;;;14.70;1.00;;;;;;5074544;28;20040;-39
2023/03/09 10:41:21;;;;;;;2.35;1.45;;;14.70;1.00;;;;;;5074385;28;20037;-38
2023/03/09 10:43:48;;;;;;;3.08;1.55;;;14.70;1.00;;;;;;5073004;28;20037;-39
2023/03/09 10:46:20;;;;;;;2.92;1.70;;;14.70;1.00;;;;;;5074166;28;20072;-39
2023/03/09 10:48:48;;;;;;;2.17;1.17;;;14.70;1.00;;;;;;5074346;28;20044;-39
2023/03/09 10:51:25;;;;;;;2.40;1.55;;;14.70;1.00;;;;;;5074477;28;20048;-38
2023/03/09 10:53:54;;;;;;;1.77;1.25;;;14.70;1.00;;;;;;5073492;28;20044;-38
2023/03/09 10:56:29;;;;;;;3.20;1.83;;;14.70;1.00;;;;;;5074021;28;20048;-38
2023/03/09 10:59:06;;;;;;;3.00;1.55;;;14.70;1.00;;;;;;5074378;28;20484;-38
2023/03/09 11:01:33;;;;;;;2.53;1.30;;;14.70;1.00;;;;;;5074198;28;20044;-38
2023/03/09 11:04:00;;;;;;;2.72;1.63;;;14.70;1.00;;;;;;5073400;28;20041;-38
2023/03/09 11:06:34;;;;;;;3.85;2.25;;;14.70;1.00;;;;;;5074318;28;20046;-38
2023/03/09 11:09:17;;;;;;;2.72;1.52;;;14.70;1.00;;;;;;5073653;28;20060;-38
2023/03/09 11:11:46;;;;;;;2.42;1.70;;;14.70;1.00;;;;;;5073947;28;20466;-38
2023/03/09 11:14:24;;;;;;;3.70;1.45;;;14.60;1.00;;;;;;5073034;28;20055;-38
2023/03/09 11:16:54;;;;;;;2.33;1.13;;;14.60;1.00;;;;;;5073804;28;20094;-38
2023/03/09 11:19:21;;;;;;;2.97;1.83;;;14.60;1.00;;;;;;5073617;28;20048;-38
2023/03/09 11:21:53;;;;;;;3.00;2.20;;;14.60;1.00;;;;;;5073676;28;20044;-38
2023/03/09 11:24:23;;;;;;;2.15;1.55;;;14.60;1.00;;;;;;5072825;28;20059;-38
2023/03/09 11:27:09;;;;;;;1.85;1.25;;;14.60;1.00;;;;;;5073777;28;20456;-38
2023/03/09 11:29:44;;;;;;;2.47;1.35;;;14.60;1.00;;;;;;5073372;28;20110;-39
2023/03/09 11:32:12;;;;;;;3.50;1.92;;;14.60;1.00;;;;;;5073378;28;20502;-39
2023/03/09 11:34:42;;;;;;;3.50;1.85;;;14.60;1.00;;;;;;5072885;28;20067;-38
2023/03/09 11:37:31;;;;;;;1.63;1.35;;;14.60;1.00;;;;;;5073484;28;20086;-39
2023/03/09 11:40:10;;;;;;;2.72;1.58;;;14.60;1.00;;;;;;5073348;28;20400;-38
2023/03/09 11:42:37;;;;;;;3.90;1.95;;;14.60;1.00;;;;;;5072536;28;20055;-38
2023/03/09 11:45:12;;;;;;;2.70;1.30;;;14.60;1.00;;;;;;5073338;28;20043;-38
2023/03/09 11:48:07;;;;;;;2.65;1.85;;;14.60;1.00;;;;;;5073261;28;20032;-38
2023/03/09 11:50:58;;;;;;;3.22;1.70;;;14.60;1.00;;;;;;5072914;28;20051;-38
2023/03/09 11:53:43;;;;;;;3.03;1.80;;;14.60;1.00;;;;;;5072376;28;20496;-38
2023/03/09 11:56:18;;;;;;;1.60;1.13;;;14.60;1.00;;;;;;5072142;28;20541;-38
2023/03/09 11:58:54;;;;;;;3.38;1.73;;;14.60;1.00;;;;;;5054851;28;20439;-38
2023/03/09 12:01:30;;;;;;;3.08;1.77;;;14.50;1.00;;;;;;5072853;28;20044;-38
2023/03/09 12:03:59;;;;;;;2.92;1.52;;;14.50;1.00;;;;;;5072034;28;20062;-38
2023/03/09 12:06:49;;;;;;;2.95;2.03;;;14.50;1.00;;;;;;5072794;28;20036;-38
2023/03/09 12:09:23;;;;;;;2.00;1.20;;;14.50;1.00;;;;;;5060911;28;20147;-39
2023/03/09 12:11:56;;;;;;;2.13;1.35;;;14.50;1.00;;;;;;5072693;28;20040;-38
2023/03/09 12:14:34;;;;;;;3.28;2.10;;;14.50;1.00;;;;;;5071947;28;20127;-38
2023/03/09 12:17:13;;;;;;;2.50;1.60;;;14.50;1.00;;;;;;5072571;28;20056;-38
2023/03/09 12:19:49;;;;;;;3.78;2.38;;;14.50;1.00;;;;;;5072285;28;20123;-38
2023/03/09 12:22:31;;;;;;;2.20;1.40;;;14.50;1.00;;;;;;5072186;28;20123;-38
2023/03/09 12:25:01;;;;;;;2.00;1.23;;;14.50;1.00;;;;;;5072079;28;20036;-38
2023/03/09 12:27:34;;;;;;;2.85;1.58;;;14.50;1.00;;;;;;5072316;28;20114;-38
2023/03/09 12:30:30;;;;;;;3.28;1.58;;;14.50;1.00;;;;;;5072443;28;20084;-80
2023/03/09 12:33:00;;;;;;;3.72;1.70;;;14.50;1.00;;;;;;5029869;28;20073;-39
2023/03/09 12:35:26;;;;;;;2.88;1.42;;;14.50;1.00;;;;;;5032361;28;20038;-39
2023/03/09 12:38:04;;;;;;;2.83;1.80;;;14.50;1.00;;;;;;5032430;28;20045;-40
2023/03/09 12:40:36;;;;;;;3.97;1.70;;;14.50;1.00;;;;;;5036748;28;20060;-40
2023/03/09 12:43:15;;;;;;;2.08;1.48;;;14.40;1.00;;;;;;5051313;28;20481;-39
2023/03/09 12:45:44;;;;;;;2.70;1.58;;;14.50;1.00;;;;;;5052588;28;20072;-39
2023/03/09 12:48:15;;;;;;;2.33;1.67;;;14.40;1.00;;;;;;5052112;28;20086;-39
2023/03/09 12:50:42;;;;;;;3.42;1.90;;;14.40;1.00;;;;;;5052026;28;20045;-39
2023/03/09 12:53:14;;;;;;;2.75;1.58;;;14.40;1.00;;;;;;5051005;28;20053;-39
2023/03/09 12:55:50;;;;;;;3.00;1.60;;;14.40;1.00;;;;;;5051946;28;20041;-39
2023/03/09 12:58:20;;;;;;;2.67;1.40;;;14.40;1.00;;;;;;5051824;28;20048;-39
2023/03/09 13:01:08;;;;;;;3.38;1.80;;;14.40;1.00;;;;;;5051928;28;20060;-40
2023/03/09 13:03:44;;;;;;;2.20;1.50;;;14.40;1.00;;;;;;5050771;28;20055;-39
2023/03/09 13:06:43;;;;;;;2.55;1.50;;;14.40;1.00;;;;;;5051854;28;20075;-39
2023/03/09 13:09:17;;;;;;;2.83;1.77;;;14.40;1.00;;;;;;5051394;28;20087;-39
2023/03/09 13:11:45;;;;;;;2.83;1.58;;;14.40;1.00;;;;;;5051999;28;20044;-39
2023/03/09 13:14:18;;;;;;;3.72;1.90;;;14.40;1.00;;;;;;5050767;28;20049;-40